USPP

Perm/Bolshoye Savino International Airport

Airport
ICAO code
USPP
IATA Code
PEE
Summary
ICAO Region
EUR
ICAO Territory
Location

Bolshoye Savino, Permskiy Kray

Serving
Perm
Elevation
123 ft
Coordinates
57° 55' 11" N , 56° 1' 9" E
Metar
Observation
USPP 120300Z 23004MPS CAVOK 15/12 Q1019 R21/090060 NOSIG RMK QFE754
Station
Perm'/Bolshoe Savino
Date/Time
2022-08-12 03:00:00
Wind direction
230°
Lowest cloud amount
clouds and visibility OK
Temperature
15°C
Dew point
12°C
Humidity
82%
QNH
1019 hPa
Weather condition
n/a

Description

Perm International Airport is an international airport located in Perm Krai, Russia located 16 kilometres southwest of Perm, in the village of Bolshoye Savino.

Runways

Designator Length Width Surface Rops
3/21 3206 49 CON Yes/Yes

Airport map

Aerial View

SKYbrary Partners:

Safety knowledge contributed by: